アルハンゲリスク の空港の天気 - METARとTAF

Arhangel'Sk ( ULAA / ARH ) - ロシア アルハンゲリスク
飛行場実況気象(Metar)
観測時間01/20 20:30 MSK (01/20 17:30 UTC)
風向・風速西南西 3m/s
視程6000m
天気現象弱いしゅう雪
全天を覆う雲 雲底高度 210m
気温-8℃
湿度93%
気圧992hPa
METARULAA 201730Z 25003MPS 210V280 6000 -SHSN OVC007CB M08/M09 Q0992 R26/590534 TEMPO 2000 SHSN RMK QFE743/0990
過去の天気等 Google飛行場航空写真 Wunderground天気予報

過去48時間のMETAR

飛行場予報(TAF)
発表時間: 1/20 19:59 MSK (1/20 16:59 UTC)
予報対象時間: 20日21時 MSK ~ 21日21時 MSK
風向・風速西 4m/s 瞬間風速 9m/s
視程6,000m
全天の8割程度の雲 雲底高度 210m
全天の8割程度の雲 雲底高度 1,520m
20日21時 MSK ~ 21日5時 MSK に一時的に
風向・風速西南西 7m/s 瞬間風速 12m/s
視程500m
天気現象強いしゅう雪 高い地吹雪
全天の8割程度の雲 雲底高度 60m
全天の8割程度の積乱雲 雲底高度 300m
21日5時 MSK から
風向・風速西北西 7m/s 瞬間風速 14m/s
視程3,000m
天気現象弱い雪
全天の8割程度の雲 雲底高度 210m
21日5時 MSK ~ 21日21時 MSK に一時的に
風向・風速北北西 15m/s 瞬間風速 21m/s
視程400m
天気現象強いしゅう雪 高い地吹雪
全天を覆う雲 鉛直視程 60m
TAF ULAA 201659Z 2018/2118 27004G09MPS 6000 BKN007 BKN050
TEMPO 2018/2102 25007G12MPS 0500 +SHSN BLSN BKN002 BKN010CB
FM210200 30007G14MPS 3000 -SN BKN007
TEMPO 2102/2118 34015G21MPS 0400 +SHSN BLSN VV002